Presidencia Roque Saenz Pena, Argentina
Current Conditions -  °F | °C
As of 6:00 PM on Monday 26 Jan 2015 (Local Time) from SARE Reporting Station
Few Clouds Few Clouds  
Wind Chill: 93°   Ceiling: Unl
Heat Index: 99°   Visibility: 6mi
Dew Point: 70°   Wind: 13mph
Humidity: 46%   Direction: 50°NE
Pressure: 29.68"   Gusts: NA
Location:  26.79°S, 60.45°W
Report Text: SARE 262100Z 05011KT 9999 FEW030 34/21 Q1005
Loading
Personal Weather Stations






























Interactive Weather Map New forecast layout! Learn more

10-Day Weather Forecast

Advertisements
Track Severe Weather on mobile